createdAt,value
2023-12-21T00:00:19.094Z,97723.34
2023-12-21T00:02:48.325Z,97719.13
2023-12-21T00:05:17.755Z,97715.91
2023-12-21T00:07:47.302Z,97714.34
2023-12-21T00:10:17.747Z,97712.34
2023-12-21T00:12:47.328Z,97708.38
2023-12-21T00:15:16.702Z,97710.41
2023-12-21T00:17:46.302Z,97706.81
2023-12-21T00:20:15.805Z,97709.44
2023-12-21T00:22:45.049Z,97719.25
2023-12-21T00:25:15.169Z,97719.25
2023-12-21T00:27:45.496Z,97715.41
2023-12-21T00:30:15.601Z,97709.66
2023-12-21T00:32:45.111Z,97705.28
2023-12-21T00:35:14.588Z,97700.47
2023-12-21T00:37:43.854Z,97702.06
2023-12-21T00:40:13.643Z,97701.88
2023-12-21T00:42:43.758Z,97703.84
2023-12-21T00:45:14.801Z,97707.63
2023-12-21T00:47:44.180Z,97696.03
2023-12-21T00:50:13.601Z,97700.41
2023-12-21T00:52:43.013Z,97694.25
2023-12-21T00:55:12.330Z,97682.03
2023-12-21T00:57:41.617Z,97689.28
2023-12-21T01:00:12.748Z,97678.09
2023-12-21T01:02:42.126Z,97687.47
2023-12-21T01:05:11.428Z,97684.28
2023-12-21T01:07:40.776Z,97681.63
2023-12-21T01:10:10.559Z,97687.00
2023-12-21T01:12:39.972Z,97684.41
2023-12-21T01:15:09.769Z,97676.81
2023-12-21T01:17:39.580Z,97673.84
2023-12-21T01:20:09.910Z,97672.47
2023-12-21T01:22:39.399Z,97665.13
2023-12-21T01:25:08.954Z,97662.53
2023-12-21T01:27:38.170Z,97665.50
2023-12-21T01:30:08.523Z,97668.53
2023-12-21T01:32:38.236Z,97662.53
2023-12-21T01:35:07.974Z,97655.53
2023-12-21T01:37:37.595Z,97654.94
2023-12-21T01:40:08.028Z,97658.50
2023-12-21T01:42:37.304Z,97651.31
2023-12-21T01:45:06.909Z,97643.88
2023-12-21T01:47:38.188Z,97644.38
2023-12-21T01:50:08.964Z,97635.81
2023-12-21T01:52:38.771Z,97626.41
2023-12-21T01:55:10.277Z,97631.34
2023-12-21T01:57:41.277Z,97636.84
2023-12-21T02:00:12.383Z,97620.25
2023-12-21T02:02:41.630Z,97613.38
2023-12-21T02:05:11.354Z,97624.94
2023-12-21T02:07:41.340Z,97620.91
2023-12-21T02:10:11.161Z,97625.13
2023-12-21T02:12:40.577Z,97622.53
2023-12-21T02:15:11.090Z,97625.75
2023-12-21T02:17:43.667Z,97623.34
2023-12-21T02:20:34.207Z,97627.72
2023-12-21T02:23:07.619Z,97626.28
2023-12-21T02:25:37.559Z,97620.16
2023-12-21T02:28:09.155Z,97616.28
2023-12-21T02:30:38.502Z,97613.56
2023-12-21T02:33:09.479Z,97622.75
2023-12-21T02:35:38.709Z,97612.41
2023-12-21T02:38:08.054Z,97614.47
2023-12-21T02:40:37.340Z,97609.88
2023-12-21T02:43:06.635Z,97597.34
2023-12-21T02:45:35.979Z,97604.94
2023-12-21T02:48:07.094Z,97607.34
2023-12-21T02:50:36.449Z,97596.34
2023-12-21T02:53:06.146Z,97606.53
2023-12-21T02:55:36.947Z,97598.97
2023-12-21T02:58:06.301Z,97597.00
2023-12-21T03:00:35.521Z,97583.84
2023-12-21T03:03:05.154Z,97575.84
2023-12-21T03:05:34.590Z,97573.84
2023-12-21T03:08:05.042Z,97565.69
2023-12-21T03:10:35.175Z,97557.28
2023-12-21T03:13:05.511Z,97564.25
2023-12-21T03:15:34.762Z,97557.09
2023-12-21T03:18:04.347Z,97557.84
2023-12-21T03:20:34.094Z,97553.06
2023-12-21T03:23:03.515Z,97538.06
2023-12-21T03:25:32.873Z,97538.25
2023-12-21T03:28:02.250Z,97531.47
2023-12-21T03:30:31.495Z,97529.06
2023-12-21T03:33:00.959Z,97524.28
2023-12-21T03:35:30.223Z,97526.66
2023-12-21T03:37:59.474Z,97524.44
2023-12-21T03:40:28.717Z,97522.84
2023-12-21T03:42:58.026Z,97515.28
2023-12-21T03:45:27.333Z,97515.47
2023-12-21T03:47:56.765Z,97506.09
2023-12-21T03:50:27.148Z,97516.59
2023-12-21T03:52:57.273Z,97510.81
2023-12-21T03:55:26.644Z,97504.56
2023-12-21T03:57:57.907Z,97496.97
2023-12-21T04:00:28.071Z,97502.13
2023-12-21T04:02:57.448Z,97501.09
2023-12-21T04:05:26.919Z,97500.88
2023-12-21T04:07:56.148Z,97498.91
2023-12-21T04:10:25.379Z,97502.28
2023-12-21T04:12:54.700Z,97495.44
2023-12-21T04:15:24.574Z,97476.00
2023-12-21T04:17:53.942Z,97468.75
2023-12-21T04:20:23.203Z,97472.47
2023-12-21T04:22:52.553Z,97473.41
2023-12-21T04:25:23.562Z,97472.75
2023-12-21T04:27:52.909Z,97471.28
2023-12-21T04:30:22.187Z,97464.44
2023-12-21T04:32:51.696Z,97456.00
2023-12-21T04:35:21.160Z,97453.53
2023-12-21T04:37:50.501Z,97455.88
2023-12-21T04:40:19.757Z,97459.03
2023-12-21T04:42:56.461Z,97447.44
2023-12-21T04:45:26.022Z,97444.00
2023-12-21T04:47:55.511Z,97444.16
2023-12-21T04:50:24.938Z,97442.38
2023-12-21T04:52:55.235Z,97439.44
2023-12-21T04:55:24.640Z,97435.47
2023-12-21T04:57:53.923Z,97431.56
2023-12-21T05:00:24.777Z,97427.53
2023-12-21T05:02:54.008Z,97426.75
2023-12-21T05:05:23.357Z,97432.09
2023-12-21T05:07:54.334Z,97430.31
2023-12-21T05:10:23.596Z,97425.31
2023-12-21T05:12:53.032Z,97422.38
2023-12-21T05:15:22.463Z,97415.19
2023-12-21T05:17:51.788Z,97415.94
2023-12-21T05:20:21.118Z,97408.56
2023-12-21T05:22:51.085Z,97410.19
2023-12-21T05:25:20.533Z,97408.00
2023-12-21T05:27:49.756Z,97401.22
2023-12-21T05:30:19.956Z,97394.09
2023-12-21T05:32:49.733Z,97390.88
2023-12-21T05:35:20.062Z,97385.31
2023-12-21T05:37:49.404Z,97378.53
2023-12-21T05:40:19.469Z,97378.38
2023-12-21T05:42:49.153Z,97366.56
2023-12-21T05:45:18.691Z,97367.63
2023-12-21T05:47:47.938Z,97363.75
2023-12-21T05:50:17.197Z,97354.66
2023-12-21T05:52:46.775Z,97363.06
2023-12-21T05:55:16.922Z,97365.50
2023-12-21T05:57:47.974Z,97361.59
2023-12-21T06:00:17.919Z,97351.25
2023-12-21T06:02:47.463Z,97349.69
2023-12-21T06:05:18.233Z,97342.09
2023-12-21T06:07:47.490Z,97330.75
2023-12-21T06:10:17.199Z,97327.78
2023-12-21T06:12:47.375Z,97328.19
2023-12-21T06:15:18.357Z,97339.41
2023-12-21T06:17:47.719Z,97349.34
2023-12-21T06:20:17.228Z,97335.03
2023-12-21T06:22:46.798Z,97333.44
2023-12-21T06:25:16.454Z,97321.53
2023-12-21T06:27:45.725Z,97316.94
2023-12-21T06:30:15.083Z,97305.56
2023-12-21T06:32:44.563Z,97322.34
2023-12-21T06:35:15.342Z,97317.00
2023-12-21T06:37:46.218Z,97328.38
2023-12-21T06:40:15.592Z,97327.38
2023-12-21T06:42:47.214Z,97332.38
2023-12-21T06:45:17.128Z,97329.00
2023-12-21T06:47:46.938Z,97335.97
2023-12-21T06:50:16.332Z,97340.97
2023-12-21T06:52:45.865Z,97336.19
2023-12-21T06:55:15.428Z,97334.41
2023-12-21T06:57:44.675Z,97335.41
2023-12-21T07:00:14.500Z,97346.38
2023-12-21T07:02:43.771Z,97342.00
2023-12-21T07:05:13.150Z,97345.78
2023-12-21T07:07:42.530Z,97341.19
2023-12-21T07:10:12.199Z,97342.38
2023-12-21T07:12:41.445Z,97342.38
2023-12-21T07:15:13.126Z,97333.03
2023-12-21T07:17:42.451Z,97340.81
2023-12-21T07:20:14.878Z,97344.78
2023-12-21T07:22:44.211Z,97341.81
2023-12-21T07:25:16.025Z,97342.00
2023-12-21T07:27:46.241Z,97342.81
2023-12-21T07:30:16.873Z,97337.63
2023-12-21T07:32:46.519Z,97344.78
2023-12-21T07:35:16.564Z,97340.81
2023-12-21T07:37:45.897Z,97341.19
2023-12-21T07:40:15.167Z,97347.19
2023-12-21T07:42:44.540Z,97343.59
2023-12-21T07:45:13.846Z,97348.19
2023-12-21T07:47:45.147Z,97352.38
2023-12-21T07:50:15.661Z,97351.19
2023-12-21T07:52:45.453Z,97344.03
2023-12-21T07:55:15.137Z,97348.78
2023-12-21T07:57:44.414Z,97348.59
2023-12-21T08:00:14.638Z,97341.22
2023-12-21T08:02:46.590Z,97343.22
2023-12-21T08:05:16.569Z,97345.81
2023-12-21T08:07:46.177Z,97345.63
2023-12-21T08:10:18.839Z,97343.00
2023-12-21T08:12:48.502Z,97338.44
2023-12-21T08:15:17.995Z,97342.22
2023-12-21T08:17:52.343Z,97341.22
2023-12-21T08:20:23.809Z,97339.22
2023-12-21T08:22:54.003Z,97340.63
2023-12-21T08:25:24.491Z,97345.03
2023-12-21T08:27:54.643Z,97339.22
2023-12-21T08:30:23.923Z,97343.22
2023-12-21T08:32:53.306Z,97345.63
2023-12-21T08:35:22.628Z,97339.00
2023-12-21T08:37:52.011Z,97341.63
2023-12-21T08:40:21.357Z,97335.22
2023-12-21T08:42:50.651Z,97339.63
2023-12-21T08:45:20.715Z,97339.25
2023-12-21T08:47:50.430Z,97331.03
2023-12-21T08:50:19.907Z,97332.84
2023-12-21T08:52:50.643Z,97324.88
2023-12-21T08:55:20.096Z,97312.47
2023-12-21T08:57:50.130Z,97311.25
2023-12-21T09:00:19.703Z,97309.69
2023-12-21T09:02:52.125Z,97318.25
2023-12-21T09:05:25.000Z,97308.66
2023-12-21T09:07:54.593Z,97299.69
2023-12-21T09:10:23.894Z,97296.88
2023-12-21T09:12:53.296Z,97292.50
2023-12-21T09:15:22.522Z,97286.13
2023-12-21T09:17:52.158Z,97269.34
2023-12-21T09:20:21.467Z,97270.97
2023-12-21T09:22:50.964Z,97265.38
2023-12-21T09:25:21.249Z,97254.59
2023-12-21T09:27:50.620Z,97250.22
2023-12-21T09:30:22.059Z,97246.63
2023-12-21T09:32:52.791Z,97235.06
2023-12-21T09:35:22.332Z,97223.06
2023-12-21T09:37:51.878Z,97227.44
2023-12-21T09:40:21.234Z,97214.69
2023-12-21T09:43:01.803Z,97204.88
2023-12-21T09:45:39.172Z,97194.13
2023-12-21T09:48:09.212Z,97183.94
2023-12-21T09:50:41.324Z,97177.72
2023-12-21T09:53:14.324Z,97165.53
2023-12-21T09:55:47.953Z,97161.34
2023-12-21T09:58:17.780Z,97160.56
2023-12-21T10:00:47.335Z,97157.16
2023-12-21T10:03:17.683Z,97148.53
2023-12-21T10:05:48.505Z,97143.53
2023-12-21T10:08:19.583Z,97133.09
2023-12-21T10:10:49.056Z,97128.47
2023-12-21T10:13:18.662Z,97115.69
2023-12-21T10:15:48.274Z,97111.94
2023-12-21T10:18:17.562Z,97108.72
2023-12-21T10:20:46.848Z,97103.91
2023-12-21T10:23:16.253Z,97094.56
2023-12-21T10:25:49.804Z,97089.81
2023-12-21T10:28:26.359Z,97088.81
2023-12-21T10:30:58.039Z,97070.78
2023-12-21T10:33:28.101Z,97072.53
2023-12-21T10:35:58.317Z,97067.16
2023-12-21T10:38:29.101Z,97049.56
2023-12-21T10:40:59.788Z,97041.03
2023-12-21T10:43:29.606Z,97041.22
2023-12-21T10:45:59.011Z,97035.19
2023-12-21T10:48:33.745Z,97024.56
2023-12-21T10:51:05.738Z,97023.69
2023-12-21T10:53:37.315Z,97008.91
2023-12-21T10:56:08.769Z,97015.81
2023-12-21T10:58:38.452Z,97003.38
2023-12-21T11:01:08.102Z,96990.66
2023-12-21T11:03:39.098Z,96985.94
2023-12-21T11:06:09.986Z,96981.00
2023-12-21T11:08:41.584Z,96979.88
2023-12-21T11:11:18.124Z,96979.59
2023-12-21T11:13:51.308Z,96966.91
2023-12-21T11:16:30.224Z,96957.16
2023-12-21T11:19:04.404Z,96942.03
2023-12-21T11:21:35.081Z,96943.25
2023-12-21T11:24:05.966Z,96929.69
2023-12-21T11:26:38.465Z,96910.13
2023-12-21T11:29:11.336Z,96919.13
2023-12-21T11:31:42.824Z,96907.00
2023-12-21T11:34:12.256Z,96898.88
2023-12-21T11:36:43.160Z,96901.28
2023-12-21T11:39:20.937Z,96893.13
2023-12-21T11:42:00.909Z,96897.13
2023-12-21T11:44:39.629Z,96894.59
2023-12-21T11:47:13.718Z,96888.66
2023-12-21T11:49:44.009Z,96881.16
2023-12-21T11:52:25.376Z,96879.41
2023-12-21T11:54:55.433Z,96871.44
2023-12-21T11:57:30.350Z,96881.00
2023-12-21T12:00:17.339Z,96862.50
2023-12-21T12:02:50.588Z,96867.66
2023-12-21T12:05:23.794Z,96862.50
2023-12-21T12:07:53.398Z,96855.09
2023-12-21T12:10:23.751Z,96840.94
2023-12-21T12:12:55.952Z,96840.94
2023-12-21T12:15:25.952Z,96832.38
2023-12-21T12:17:56.357Z,96819.59
2023-12-21T12:20:26.090Z,96811.63
2023-12-21T12:22:55.575Z,96799.06
2023-12-21T12:25:25.088Z,96795.25
2023-12-21T12:27:55.845Z,96786.47
2023-12-21T12:30:25.297Z,96779.09
2023-12-21T12:32:57.170Z,96769.31
2023-12-21T12:35:28.402Z,96762.72
2023-12-21T12:38:00.384Z,96764.53
2023-12-21T12:40:29.771Z,96756.16
2023-12-21T12:43:00.588Z,96754.59
2023-12-21T12:45:33.433Z,96738.63
2023-12-21T12:48:04.333Z,96740.03
2023-12-21T12:50:33.818Z,96731.28
2023-12-21T12:53:04.270Z,96715.16
2023-12-21T12:55:33.859Z,96707.78
2023-12-21T12:58:07.704Z,96711.22
2023-12-21T13:00:37.969Z,96698.88
2023-12-21T13:03:09.561Z,96693.72
2023-12-21T13:05:39.212Z,96686.34
2023-12-21T13:08:08.678Z,96684.56
2023-12-21T13:10:37.913Z,96678.75
2023-12-21T13:13:07.569Z,96676.16
2023-12-21T13:15:36.823Z,96675.78
2023-12-21T13:18:06.764Z,96674.78
2023-12-21T13:20:36.396Z,96656.25
2023-12-21T13:23:05.732Z,96661.78
2023-12-21T13:25:35.431Z,96652.66
2023-12-21T13:28:12.458Z,96658.63
2023-12-21T13:30:48.549Z,96655.25
2023-12-21T13:33:19.278Z,96659.09
2023-12-21T13:35:48.942Z,96653.53
2023-12-21T13:38:18.109Z,96654.50
2023-12-21T13:40:48.816Z,96648.19
2023-12-21T13:43:20.113Z,96640.41
2023-12-21T13:45:49.444Z,96633.25
2023-12-21T13:48:22.809Z,96633.06
2023-12-21T13:50:52.301Z,96632.84
2023-12-21T13:53:21.481Z,96619.69
2023-12-21T13:55:50.773Z,96615.53
2023-12-21T13:58:20.289Z,96614.47
2023-12-21T14:00:50.421Z,96609.66
2023-12-21T14:03:19.774Z,96603.84
2023-12-21T14:05:49.054Z,96607.59
2023-12-21T14:08:19.094Z,96596.44
2023-12-21T14:10:48.440Z,96596.22
2023-12-21T14:13:17.749Z,96595.97
2023-12-21T14:15:47.010Z,96586.16
2023-12-21T14:18:16.259Z,96570.69
2023-12-21T14:20:49.067Z,96577.53
2023-12-21T14:23:20.481Z,96569.84
2023-12-21T14:25:50.491Z,96561.59
2023-12-21T14:28:20.457Z,96553.34
2023-12-21T14:30:51.448Z,96547.84
2023-12-21T14:33:20.877Z,96548.94
2023-12-21T14:35:50.120Z,96537.25
2023-12-21T14:38:19.373Z,96533.69
2023-12-21T14:40:48.652Z,96528.16
2023-12-21T14:43:18.011Z,96514.25
2023-12-21T14:45:47.342Z,96507.28
2023-12-21T14:48:18.123Z,96513.19
2023-12-21T14:50:47.580Z,96503.44
2023-12-21T14:53:16.892Z,96491.50
2023-12-21T14:55:48.573Z,96487.13
2023-12-21T14:58:17.915Z,96488.09
2023-12-21T15:00:47.322Z,96490.19
2023-12-21T15:03:16.692Z,96472.88
2023-12-21T15:05:45.939Z,96474.84
2023-12-21T15:08:15.391Z,96458.72
2023-12-21T15:10:45.065Z,96460.25
2023-12-21T15:13:15.741Z,96438.56
2023-12-21T15:15:45.150Z,96432.59
2023-12-21T15:18:14.508Z,96428.00
2023-12-21T15:20:43.906Z,96421.97
2023-12-21T15:23:13.269Z,96415.16
2023-12-21T15:25:42.768Z,96412.34
2023-12-21T15:28:12.176Z,96401.25
2023-12-21T15:30:41.578Z,96396.28
2023-12-21T15:33:10.923Z,96391.69
2023-12-21T15:35:40.385Z,96390.69
2023-12-21T15:38:09.806Z,96382.94
2023-12-21T15:40:40.954Z,96368.84
2023-12-21T15:43:11.081Z,96373.38
2023-12-21T15:45:44.640Z,96357.41
2023-12-21T15:48:14.408Z,96358.22
2023-12-21T15:50:47.621Z,96349.44
2023-12-21T15:53:17.037Z,96342.22
2023-12-21T15:55:46.351Z,96341.38
2023-12-21T15:58:15.740Z,96334.63
2023-12-21T16:00:46.102Z,96334.41
2023-12-21T16:03:15.386Z,96334.75
2023-12-21T16:05:45.403Z,96323.41
2023-12-21T16:08:14.703Z,96311.25
2023-12-21T16:10:44.189Z,96301.00
2023-12-21T16:13:13.591Z,96299.38
2023-12-21T16:15:43.287Z,96291.50
2023-12-21T16:18:12.666Z,96285.25
2023-12-21T16:20:42.359Z,96265.88
2023-12-21T16:23:14.836Z,96262.03
2023-12-21T16:25:44.304Z,96257.66
2023-12-21T16:28:14.366Z,96245.84
2023-12-21T16:30:43.640Z,96247.34
2023-12-21T16:33:13.002Z,96232.38
2023-12-21T16:35:43.759Z,96228.13
2023-12-21T16:38:13.467Z,96215.97
2023-12-21T16:40:43.275Z,96217.91
2023-12-21T16:43:13.266Z,96209.44
2023-12-21T16:45:43.801Z,96205.41
2023-12-21T16:48:14.681Z,96208.53
2023-12-21T16:50:50.418Z,96203.47
2023-12-21T16:53:19.791Z,96197.63
2023-12-21T16:55:49.224Z,96195.25
2023-12-21T16:58:18.633Z,96189.06
2023-12-21T17:00:47.954Z,96183.66
2023-12-21T17:03:18.742Z,96177.69
2023-12-21T17:05:48.175Z,96166.09
2023-12-21T17:08:17.517Z,96151.41
2023-12-21T17:10:46.840Z,96158.53
2023-12-21T17:13:16.088Z,96145.66
2023-12-21T17:15:46.504Z,96145.44
2023-12-21T17:18:16.416Z,96138.25
2023-12-21T17:20:45.810Z,96142.94
2023-12-21T17:23:17.249Z,96139.34
2023-12-21T17:25:47.126Z,96132.94
2023-12-21T17:28:18.383Z,96130.09
2023-12-21T17:30:54.227Z,96132.13
2023-12-21T17:33:23.449Z,96127.25
2023-12-21T17:35:54.610Z,96126.72
2023-12-21T17:38:24.231Z,96124.78
2023-12-21T17:40:55.068Z,96123.56
2023-12-21T17:43:28.165Z,96114.31
2023-12-21T17:46:00.937Z,96105.75
2023-12-21T17:48:30.374Z,96108.13
2023-12-21T17:50:59.906Z,96105.28
2023-12-21T17:53:29.115Z,96099.09
2023-12-21T17:56:00.327Z,96099.88
2023-12-21T17:58:29.853Z,96094.69
2023-12-21T18:01:00.037Z,96090.50
2023-12-21T18:03:29.852Z,96096.47
2023-12-21T18:05:59.204Z,96096.47
2023-12-21T18:08:28.531Z,96089.28
2023-12-21T18:10:57.796Z,96069.22
2023-12-21T18:13:27.158Z,96071.56
2023-12-21T18:15:56.453Z,96064.25
2023-12-21T18:18:25.711Z,96055.69
2023-12-21T18:20:58.282Z,96049.94
2023-12-21T18:23:27.542Z,96048.69
2023-12-21T18:25:58.570Z,96039.34
2023-12-21T18:28:28.412Z,96029.41
2023-12-21T18:30:57.729Z,96022.88
2023-12-21T18:33:28.229Z,96010.47
2023-12-21T18:35:57.374Z,96003.94
2023-12-21T18:38:26.578Z,96001.81
2023-12-21T18:40:56.433Z,95996.31
2023-12-21T18:43:25.728Z,95998.03
2023-12-21T18:45:54.921Z,95987.00
2023-12-21T18:48:24.284Z,95985.31
2023-12-21T18:50:54.467Z,95982.72
2023-12-21T18:53:26.113Z,95976.75
2023-12-21T18:55:56.307Z,95968.09
2023-12-21T18:58:25.652Z,95960.75
2023-12-21T19:00:56.394Z,95968.44
2023-12-21T19:03:26.437Z,95958.31
2023-12-21T19:05:55.767Z,95958.09
2023-12-21T19:08:25.185Z,95949.53
2023-12-21T19:10:56.818Z,95948.72
2023-12-21T19:13:27.289Z,95941.97
2023-12-21T19:15:57.663Z,95938.38
2023-12-21T19:18:28.781Z,95933.53
2023-12-21T19:21:00.550Z,95927.06
2023-12-21T19:23:30.030Z,95924.03
2023-12-21T19:26:02.216Z,95923.25
2023-12-21T19:28:34.113Z,95912.44
2023-12-21T19:31:09.828Z,95906.22
2023-12-21T19:33:42.214Z,95914.78
2023-12-21T19:36:18.842Z,95898.47
2023-12-21T19:38:49.732Z,95892.00
2023-12-21T19:41:26.330Z,95893.81
2023-12-21T19:44:00.932Z,95889.41
2023-12-21T19:46:30.728Z,95872.31
2023-12-21T19:49:16.589Z,95877.56
2023-12-21T19:51:47.122Z,95870.88
2023-12-21T19:54:20.222Z,95872.63
2023-12-21T19:56:56.424Z,95856.75
2023-12-21T19:59:31.364Z,95857.75
2023-12-21T20:02:02.618Z,95867.75
2023-12-21T20:04:33.678Z,95872.44
2023-12-21T20:07:10.206Z,95868.63
2023-12-21T20:09:43.504Z,95856.59
2023-12-21T20:12:15.327Z,95854.09
2023-12-21T20:14:55.531Z,95837.88
2023-12-21T20:17:29.588Z,95828.97
2023-12-21T20:19:59.357Z,95814.75
2023-12-21T20:22:33.021Z,95804.31
2023-12-21T20:25:08.068Z,95798.78
2023-12-21T20:27:50.700Z,95794.66
2023-12-21T20:30:24.762Z,95783.25
2023-12-21T20:32:58.633Z,95793.16
2023-12-21T20:35:41.411Z,95787.97
2023-12-21T20:38:13.666Z,95775.97
2023-12-21T20:40:49.836Z,95775.31
2023-12-21T20:43:25.128Z,95764.19
2023-12-21T20:45:54.434Z,95748.72
2023-12-21T20:48:33.980Z,95753.91
2023-12-21T20:51:05.600Z,95749.19
2023-12-21T20:53:41.503Z,95749.97
2023-12-21T20:56:14.495Z,95745.16
2023-12-21T20:58:49.604Z,95741.13
2023-12-21T21:01:21.030Z,95735.75
2023-12-21T21:03:51.544Z,95730.72
2023-12-21T21:06:27.040Z,95733.53
2023-12-21T21:09:01.895Z,95725.84
2023-12-21T21:11:32.887Z,95722.03
2023-12-21T21:14:04.115Z,95709.47
2023-12-21T21:16:36.484Z,95706.31
2023-12-21T21:19:06.883Z,95698.31
2023-12-21T21:21:46.457Z,95688.75
2023-12-21T21:24:15.967Z,95689.06
2023-12-21T21:26:47.767Z,95689.84
2023-12-21T21:29:19.533Z,95676.06
2023-12-21T21:31:48.807Z,95656.03
2023-12-21T21:34:18.081Z,95652.66
2023-12-21T21:36:48.941Z,95650.63
2023-12-21T21:39:19.717Z,95638.72
2023-12-21T21:41:52.508Z,95643.09
2023-12-21T21:44:29.821Z,95650.41
2023-12-21T21:47:00.043Z,95655.03
2023-12-21T21:49:29.440Z,95659.28
2023-12-21T21:51:58.677Z,95640.06
2023-12-21T21:54:28.267Z,95616.16
2023-12-21T21:56:57.852Z,95619.28
2023-12-21T21:59:27.905Z,95613.41
2023-12-21T22:01:57.243Z,95599.03
2023-12-21T22:04:28.776Z,95593.06
2023-12-21T22:06:58.361Z,95590.06
2023-12-21T22:09:27.645Z,95600.94
2023-12-21T22:11:57.106Z,95587.38
2023-12-21T22:14:26.727Z,95594.91
2023-12-21T22:16:55.918Z,95559.81
2023-12-21T22:19:25.244Z,95552.59
2023-12-21T22:21:54.994Z,95550.19
2023-12-21T22:24:25.013Z,95540.84
2023-12-21T22:26:54.261Z,95530.72
2023-12-21T22:29:23.426Z,95540.78
2023-12-21T22:31:52.695Z,95517.41
2023-12-21T22:34:22.011Z,95511.38
2023-12-21T22:36:51.204Z,95517.53
2023-12-21T22:39:20.648Z,95529.75
2023-12-21T22:41:50.197Z,95529.09
2023-12-21T22:44:20.276Z,95535.41
2023-12-21T22:46:49.806Z,95525.66
2023-12-21T22:49:19.205Z,95534.34
2023-12-21T22:51:51.161Z,95546.72
2023-12-21T22:54:20.491Z,95554.22
2023-12-21T22:56:49.702Z,95565.34
2023-12-21T22:59:18.956Z,95562.56
2023-12-21T23:01:48.986Z,95572.44
2023-12-21T23:04:18.338Z,95598.81
2023-12-21T23:06:48.927Z,95611.75
2023-12-21T23:09:18.156Z,95614.81
2023-12-21T23:11:47.521Z,95602.41
2023-12-21T23:14:16.771Z,95617.91
2023-12-21T23:16:46.009Z,95617.81
2023-12-21T23:19:16.073Z,95620.19
2023-12-21T23:21:45.661Z,95610.16
2023-12-21T23:24:14.881Z,95590.53
2023-12-21T23:26:44.198Z,95614.88
2023-12-21T23:29:13.464Z,95622.88
2023-12-21T23:31:42.642Z,95591.97
2023-12-21T23:34:12.050Z,95582.09
2023-12-21T23:36:43.089Z,95564.31
2023-12-21T23:39:12.593Z,95557.34
2023-12-21T23:41:42.492Z,95550.84
2023-12-21T23:44:11.720Z,95535.78
2023-12-21T23:46:41.010Z,95527.25
2023-12-21T23:49:10.646Z,95516.50
2023-12-21T23:51:40.793Z,95513.91
2023-12-21T23:54:09.996Z,95488.44
2023-12-21T23:56:40.217Z,95484.75
2023-12-21T23:59:09.437Z,95480.03
